Time;durP1;ratioP1;P1;durP2;ratioP2;P2;SDS_P1;SDS_P2;PMS_P1;PMS_P2;Temp;Humidity;BMP_temperature;BMP_pressure;BME280_temperature;BME280_humidity;BME280_pressure;Samples;Min_cycle;Max_cycle;Signal;HPM_P1;HPM_P2
2024/03/03 00:02:04;;;;;;;1.38;0.70;;;;;;;18.52;39.00;99528.91;4910229;29;20107;-67
2024/03/03 00:04:29;;;;;;;0.60;0.60;;;;;;;18.48;39.54;99524.97;4924505;29;20032;-67
2024/03/03 00:06:55;;;;;;;1.85;1.13;;;;;;;18.47;39.53;99534.97;4928758;29;20028;-67
2024/03/03 00:09:20;;;;;;;0.80;0.60;;;;;;;18.46;39.15;99537.88;4924758;29;20066;-67
2024/03/03 00:11:46;;;;;;;3.67;1.00;;;;;;;18.46;39.22;99532.44;4927955;28;20051;-67
2024/03/03 00:14:12;;;;;;;1.35;0.93;;;;;;;18.48;38.56;99533.13;4925236;28;20412;-67
2024/03/03 00:16:41;;;;;;;1.80;0.90;;;;;;;18.45;38.91;99528.88;4924682;29;20464;-68
2024/03/03 00:19:06;;;;;;;1.35;0.80;;;;;;;18.45;39.46;99537.03;4925087;29;20020;-68
2024/03/03 00:21:32;;;;;;;1.08;0.75;;;;;;;18.41;39.57;99529.53;4927030;29;20024;-68
2024/03/03 00:23:57;;;;;;;1.27;0.70;;;;;;;18.40;38.89;99530.56;4924231;29;20043;-68
2024/03/03 00:26:23;;;;;;;2.85;0.82;;;;;;;18.38;38.65;99529.97;4926422;29;20064;-68
2024/03/03 00:28:48;;;;;;;0.70;0.68;;;;;;;18.39;39.78;99532.47;4909263;28;20016;-67
2024/03/03 00:31:16;;;;;;;1.00;0.70;;;;;;;18.38;39.83;99527.25;4924807;29;20024;-68
2024/03/03 00:33:42;;;;;;;0.65;0.60;;;;;;;18.42;39.48;99539.34;4926149;29;20412;-68
2024/03/03 00:36:08;;;;;;;1.45;0.73;;;;;;;18.41;39.06;99537.66;4924786;29;20039;-68
2024/03/03 00:38:34;;;;;;;2.50;0.75;;;;;;;18.36;39.54;99532.91;4925080;29;20027;-68
2024/03/03 00:41:00;;;;;;;5.68;0.90;;;;;;;18.35;39.72;99524.97;4926294;29;20035;-68
2024/03/03 00:43:25;;;;;;;1.35;0.90;;;;;;;18.34;39.15;99526.81;4927382;29;20016;-68
2024/03/03 00:45:51;;;;;;;1.33;0.70;;;;;;;18.34;39.35;99534.16;4929354;29;20030;-68
2024/03/03 00:48:16;;;;;;;2.13;1.63;;;;;;;18.32;39.96;99528.09;4929735;29;20026;-68
2024/03/03 00:50:41;;;;;;;1.83;0.90;;;;;;;18.30;38.65;99522.06;4925237;29;20024;-67
2024/03/03 00:53:07;;;;;;;1.02;0.80;;;;;;;18.33;39.82;99524.34;4921203;29;20028;-67
2024/03/03 00:55:33;;;;;;;2.15;1.10;;;;;;;18.35;39.91;99519.53;4920136;29;20076;-68
2024/03/03 00:57:59;;;;;;;2.83;0.90;;;;;;;18.37;39.77;99520.19;4921099;29;20385;-67
2024/03/03 01:00:24;;;;;;;1.23;0.70;;;;;;;18.41;39.74;99513.28;4904032;29;20024;-68
2024/03/03 01:02:49;;;;;;;3.13;0.77;;;;;;;18.41;39.26;99514.09;4920115;29;20091;-68
2024/03/03 01:05:15;;;;;;;0.85;0.70;;;;;;;18.42;39.82;99523.91;4920246;29;20566;-67
2024/03/03 01:07:41;;;;;;;6.13;0.60;;;;;;;18.44;39.75;99529.13;4919644;29;20488;-67
2024/03/03 01:10:06;;;;;;;0.60;0.60;;;;;;;18.46;40.32;99527.03;4920301;29;20076;-68
2024/03/03 01:12:32;;;;;;;1.38;0.90;;;;;;;18.50;39.97;99533.72;4904506;29;20115;-67
2024/03/03 01:14:57;;;;;;;1.65;0.93;;;;;;;18.52;39.73;99527.06;4919962;29;20540;-67
2024/03/03 01:17:23;;;;;;;2.45;0.80;;;;;;;18.58;40.03;99541.63;4904015;29;20040;-67
2024/03/03 01:19:48;;;;;;;0.80;0.80;;;;;;;18.62;40.01;99536.63;4919754;29;20059;-68
2024/03/03 01:22:14;;;;;;;0.82;0.70;;;;;;;18.64;39.36;99519.09;4919078;29;20058;-68
2024/03/03 01:24:39;;;;;;;1.27;1.00;;;;;;;18.71;39.80;99536.16;4919244;29;20036;-67
2024/03/03 01:27:04;;;;;;;0.75;0.40;;;;;;;18.75;39.33;99542.00;4919341;29;20028;-68
2024/03/03 01:29:30;;;;;;;1.08;0.68;;;;;;;18.76;39.56;99539.06;4919254;29;20088;-68
2024/03/03 01:31:55;;;;;;;1.25;0.70;;;;;;;18.78;39.53;99531.56;4920173;29;20048;-68
2024/03/03 01:34:23;;;;;;;1.17;0.63;;;;;;;18.79;39.32;99533.22;4919074;29;20040;-68
2024/03/03 01:36:48;;;;;;;0.98;0.60;;;;;;;18.80;40.12;99540.31;4903653;29;20176;-68
2024/03/03 01:39:14;;;;;;;1.10;0.77;;;;;;;18.79;39.34;99537.84;4920147;29;20116;-68
2024/03/03 01:41:44;;;;;;;0.70;0.70;;;;;;;18.78;39.95;99537.00;4920513;29;20036;-68
2024/03/03 01:44:09;;;;;;;3.13;1.08;;;;;;;18.74;40.01;99518.63;4902897;29;20096;-67
2024/03/03 01:46:35;;;;;;;0.80;0.70;;;;;;;18.74;39.56;99530.31;4918802;29;20111;-68
2024/03/03 01:49:00;;;;;;;2.35;1.10;;;;;;;18.68;39.85;99517.59;4918865;29;20066;-68
2024/03/03 01:51:26;;;;;;;0.88;0.80;;;;;;;18.67;39.52;99518.66;4919991;29;20111;-67
2024/03/03 01:53:52;;;;;;;1.58;0.60;;;;;;;18.66;39.13;99524.28;4918029;29;20028;-67
2024/03/03 01:56:23;;;;;;;1.02;0.60;;;;;;;18.64;39.76;99529.09;4902848;29;20564;-68
2024/03/03 01:58:49;;;;;;;1.17;0.80;;;;;;;18.58;39.38;99519.94;4919010;29;20036;-68
2024/03/03 02:01:15;;;;;;;1.60;0.75;;;;;;;18.57;39.93;99523.69;4918717;29;20040;-67
2024/03/03 02:03:40;;;;;;;1.45;0.90;;;;;;;18.54;39.74;99529.53;4918244;29;20040;-68
2024/03/03 02:06:07;;;;;;;1.58;0.98;;;;;;;18.49;39.84;99521.22;4918708;29;20035;-68
2024/03/03 02:08:33;;;;;;;3.13;1.00;;;;;;;18.45;40.03;99525.38;4918254;29;20410;-67
2024/03/03 02:10:59;;;;;;;1.00;0.85;;;;;;;18.42;39.95;99525.78;4918276;29;20020;-67
2024/03/03 02:13:24;;;;;;;4.13;1.23;;;;;;;18.41;39.82;99524.13;4902731;29;20047;-68
2024/03/03 02:15:49;;;;;;;1.85;1.10;;;;;;;18.36;39.62;99522.06;4918584;29;20035;-67
2024/03/03 02:18:15;;;;;;;1.77;1.15;;;;;;;18.31;40.17;99526.44;4902520;29;20492;-67
2024/03/03 02:20:41;;;;;;;2.47;1.48;;;;;;;18.26;39.51;99523.50;4918146;29;20040;-67
2024/03/03 02:23:08;;;;;;;2.67;1.05;;;;;;;18.21;39.77;99517.88;4918250;29;20147;-67
2024/03/03 02:25:34;;;;;;;3.80;1.27;;;;;;;18.18;39.58;99523.72;4918084;29;20036;-67
2024/03/03 02:28:01;;;;;;;2.35;1.40;;;;;;;18.12;39.86;99527.31;4901964;29;20489;-67
2024/03/03 02:30:27;;;;;;;2.60;1.27;;;;;;;18.06;40.43;99525.41;4918192;29;20048;-67
2024/03/03 02:32:52;;;;;;;3.78;1.70;;;;;;;18.06;39.84;99522.72;4918037;29;20048;-67
2024/03/03 02:35:17;;;;;;;1.98;1.45;;;;;;;17.95;40.45;99527.69;4935949;29;20057;-67
2024/03/03 02:37:45;;;;;;;2.60;1.70;;;;;;;17.93;40.55;99529.78;4938392;29;20036;-67
2024/03/03 02:40:10;;;;;;;3.25;1.83;;;;;;;17.86;40.92;99526.25;4936814;29;20035;-67
2024/03/03 02:42:36;;;;;;;4.10;2.30;;;;;;;17.82;40.91;99525.00;4920870;29;20062;-67
2024/03/03 02:45:01;;;;;;;4.35;2.13;;;;;;;17.78;40.72;99528.34;4937806;29;20067;-67
2024/03/03 02:47:27;;;;;;;2.83;2.13;;;;;;;17.74;40.34;99521.66;4936761;29;20536;-67
2024/03/03 02:49:52;;;;;;;3.15;1.75;;;;;;;17.70;40.62;99521.22;4936682;29;20039;-67
2024/03/03 02:52:17;;;;;;;3.90;1.90;;;;;;;17.64;41.08;99516.66;4920523;29;20039;-67
2024/03/03 02:54:43;;;;;;;4.00;2.17;;;;;;;17.61;41.01;99518.94;4936558;29;20063;-67
2024/03/03 02:57:08;;;;;;;2.90;1.60;;;;;;;17.56;40.77;99518.72;4924371;29;20048;-67
2024/03/03 02:59:33;;;;;;;2.97;1.83;;;;;;;17.52;40.87;99520.97;4901732;29;20400;-67
2024/03/03 03:01:59;;;;;;;3.83;2.03;;;;;;;17.54;40.35;99518.91;4918791;29;20040;-67
2024/03/03 03:04:24;;;;;;;4.85;1.73;;;;;;;17.53;41.03;99525.38;4917778;29;20044;-67
2024/03/03 03:06:49;;;;;;;2.70;1.85;;;;;;;17.49;40.79;99518.69;4916740;29;20492;-67
2024/03/03 03:09:15;;;;;;;2.70;1.83;;;;;;;17.47;40.88;99516.16;4933975;29;20430;-67
2024/03/03 03:11:40;;;;;;;3.38;2.03;;;;;;;17.44;41.13;99521.16;4937433;29;20039;-67
2024/03/03 03:14:06;;;;;;;3.08;1.98;;;;;;;17.42;41.14;99524.06;4936170;29;20028;-68
2024/03/03 03:16:31;;;;;;;4.10;2.42;;;;;;;17.38;41.45;99527.41;4936089;29;20500;-68
2024/03/03 03:18:56;;;;;;;4.63;2.17;;;;;;;17.36;41.08;99522.19;4952669;29;20031;-67
2024/03/03 03:21:26;;;;;;;4.28;2.15;;;;;;;17.31;41.67;99515.72;4920491;29;20046;-67
2024/03/03 03:23:51;;;;;;;2.50;1.92;;;;;;;17.27;41.35;99515.31;4936250;29;20035;-68
2024/03/03 03:26:16;;;;;;;5.18;2.70;;;;;;;17.23;41.35;99522.16;4936374;29;20086;-67
2024/03/03 03:28:42;;;;;;;5.22;2.30;;;;;;;17.18;40.77;99516.53;4951624;29;20430;-68
2024/03/03 03:31:07;;;;;;;2.45;2.10;;;;;;;17.20;41.77;99524.41;4937286;29;20035;-67
2024/03/03 03:33:33;;;;;;;4.13;2.40;;;;;;;17.18;41.96;99521.94;4919780;29;20457;-67
2024/03/03 03:35:58;;;;;;;4.60;2.42;;;;;;;17.18;41.82;99521.09;4935727;29;20042;-68
2024/03/03 03:38:23;;;;;;;4.22;2.50;;;;;;;17.16;41.03;99534.00;4937079;29;20527;-68
2024/03/03 03:40:49;;;;;;;6.30;2.40;;;;;;;17.13;42.16;99529.84;4919744;29;20063;-67
2024/03/03 03:43:14;;;;;;;3.38;2.20;;;;;;;17.11;42.06;99539.19;4951769;29;20055;-68
2024/03/03 03:45:39;;;;;;;5.72;2.50;;;;;;;17.11;41.60;99542.75;4919975;29;20492;-68
2024/03/03 03:48:05;;;;;;;2.88;2.00;;;;;;;17.06;40.95;99552.47;4919825;29;20028;-68
2024/03/03 03:50:30;;;;;;;6.18;2.78;;;;;;;17.03;41.97;99552.91;4935718;29;20094;-67
2024/03/03 03:52:56;;;;;;;4.95;3.05;;;;;;;17.00;41.17;99554.13;4937135;29;20455;-68
2024/03/03 03:55:21;;;;;;;5.70;3.13;;;;;;;17.00;41.38;99545.19;4920158;29;20035;-67
2024/03/03 03:57:46;;;;;;;6.35;2.35;;;;;;;17.02;41.62;99554.78;4936778;29;20491;-67
2024/03/03 04:00:12;;;;;;;3.60;2.33;;;;;;;17.03;41.97;99556.41;4935509;29;20552;-68
2024/03/03 04:02:37;;;;;;;3.15;2.28;;;;;;;17.03;42.34;99555.59;4951226;29;20578;-68
2024/03/03 04:05:04;;;;;;;13.07;2.47;;;;;;;17.03;42.14;99544.78;4936725;29;20043;-67
2024/03/03 04:07:30;;;;;;;3.75;2.53;;;;;;;17.06;42.15;99561.44;4935409;29;20039;-67
2024/03/03 04:09:56;;;;;;;2.85;2.03;;;;;;;17.09;41.17;99565.59;4935689;29;20032;-67
2024/03/03 04:12:21;;;;;;;3.78;2.17;;;;;;;17.09;41.95;99565.59;4935264;29;20122;-67
2024/03/03 04:14:47;;;;;;;6.28;2.50;;;;;;;17.08;42.19;99563.94;4935180;29;20040;-67
2024/03/03 04:17:12;;;;;;;5.97;2.38;;;;;;;17.09;42.09;99560.19;4936124;29;20050;-68
2024/03/03 04:19:38;;;;;;;4.25;2.05;;;;;;;17.12;41.33;99581.44;4923443;29;20052;-68
2024/03/03 04:22:03;;;;;;;6.60;2.63;;;;;;;17.14;42.69;99579.38;4923272;29;20074;-67
2024/03/03 04:24:29;;;;;;;8.55;2.60;;;;;;;17.12;42.20;99570.59;4939540;29;20504;-67
2024/03/03 04:26:54;;;;;;;4.03;2.85;;;;;;;17.14;41.47;99580.19;4939034;29;20086;-67
2024/03/03 04:29:19;;;;;;;7.80;2.75;;;;;;;17.16;41.43;99575.44;4939231;29;20039;-68
2024/03/03 04:31:45;;;;;;;7.50;3.65;;;;;;;17.15;42.26;99571.06;4939507;29;20028;-68
2024/03/03 04:34:11;;;;;;;5.05;2.58;;;;;;;17.16;42.14;99580.00;4938792;29;20047;-67
2024/03/03 04:36:37;;;;;;;5.85;3.17;;;;;;;17.14;41.69;99573.97;4922967;29;20035;-68
2024/03/03 04:39:03;;;;;;;8.85;2.60;;;;;;;17.14;41.56;99568.56;4939026;29;20031;-67
2024/03/03 04:41:30;;;;;;;6.45;2.40;;;;;;;17.15;42.42;99571.06;4938776;29;20040;-67
2024/03/03 04:43:56;;;;;;;4.55;2.78;;;;;;;17.18;41.33;99580.63;4954927;29;20047;-67
2024/03/03 04:46:21;;;;;;;6.88;2.63;;;;;;;17.16;41.75;99569.19;4939974;29;20044;-68
2024/03/03 04:48:47;;;;;;;4.75;2.83;;;;;;;17.19;42.60;99580.44;4939981;29;20047;-67
2024/03/03 04:51:12;;;;;;;5.50;2.53;;;;;;;17.19;42.14;99576.91;4938933;29;20024;-68
2024/03/03 04:53:38;;;;;;;5.35;2.58;;;;;;;17.21;42.53;99582.94;4940322;29;20122;-67
2024/03/03 04:56:04;;;;;;;7.75;2.88;;;;;;;17.22;42.71;99582.75;4938818;29;20385;-67
2024/03/03 04:58:29;;;;;;;4.22;2.80;;;;;;;17.23;41.67;99583.56;4940335;28;20075;-67
2024/03/03 05:00:55;;;;;;;7.32;2.95;;;;;;;17.25;41.77;99589.63;4939203;29;20153;-67
2024/03/03 05:03:22;;;;;;;4.82;2.80;;;;;;;17.26;42.28;99594.81;4954605;29;20045;-67
2024/03/03 05:05:47;;;;;;;6.70;3.28;;;;;;;17.28;41.88;99591.94;4922390;29;20526;-68
2024/03/03 05:08:12;;;;;;;8.45;3.08;;;;;;;17.29;42.73;99597.13;4938485;29;20039;-67
2024/03/03 05:10:38;;;;;;;6.22;3.25;;;;;;;17.30;41.73;99592.56;4939668;29;20028;-67
2024/03/03 05:13:03;;;;;;;7.82;3.60;;;;;;;17.36;42.65;99594.47;4938425;29;20118;-68
2024/03/03 05:15:29;;;;;;;5.97;2.97;;;;;;;17.38;41.87;99590.50;4939769;29;20063;-67
2024/03/03 05:17:55;;;;;;;4.53;2.35;;;;;;;17.40;41.38;99588.41;4939539;29;20031;-68
2024/03/03 05:20:20;;;;;;;5.75;2.90;;;;;;;17.40;42.55;99584.88;4939832;29;20152;-68
2024/03/03 05:22:45;;;;;;;5.40;3.45;;;;;;;17.42;42.84;99582.78;4938308;29;20047;-68
2024/03/03 05:25:11;;;;;;;4.78;2.72;;;;;;;17.44;41.48;99596.97;4954286;29;20038;-67
2024/03/03 05:27:36;;;;;;;6.40;3.15;;;;;;;17.43;41.81;99595.31;4922603;29;20035;-67
2024/03/03 05:30:02;;;;;;;6.18;3.28;;;;;;;17.47;42.49;99597.38;4937155;29;20416;-68
2024/03/03 05:32:28;;;;;;;5.95;2.72;;;;;;;17.47;41.92;99591.97;4928872;29;20048;-68
2024/03/03 05:34:54;;;;;;;8.00;3.15;;;;;;;17.54;42.14;99597.44;4919070;29;20048;-67
2024/03/03 05:37:19;;;;;;;4.60;3.65;;;;;;;17.54;42.75;99600.16;4919924;29;20032;-67
2024/03/03 05:39:44;;;;;;;8.50;3.80;;;;;;;17.55;42.40;99604.53;4919571;29;20036;-67
2024/03/03 05:42:11;;;;;;;5.47;3.17;;;;;;;17.57;42.36;99613.28;4919371;29;20047;-68
2024/03/03 05:44:37;;;;;;;6.85;3.42;;;;;;;17.58;41.75;99614.97;4919988;29;20515;-67
2024/03/03 05:47:02;;;;;;;7.70;3.67;;;;;;;17.56;42.16;99610.78;4919089;29;20040;-67
2024/03/03 05:49:28;;;;;;;5.40;2.97;;;;;;;17.53;42.55;99614.72;4919962;29;20039;-67
2024/03/03 05:51:53;;;;;;;5.95;2.80;;;;;;;17.52;41.73;99613.03;4903034;29;20040;-67
2024/03/03 05:54:19;;;;;;;5.72;3.80;;;;;;;17.50;42.55;99611.56;4918636;29;20062;-67
2024/03/03 05:56:45;;;;;;;6.13;3.65;;;;;;;17.51;41.80;99624.06;4918809;29;20040;-67
2024/03/03 05:59:13;;;;;;;6.55;3.65;;;;;;;17.47;42.39;99613.63;4918350;29;20044;-68
2024/03/03 06:01:38;;;;;;;5.50;3.42;;;;;;;17.48;41.85;99622.59;4919767;29;20040;-67
2024/03/03 06:04:04;;;;;;;8.73;4.90;;;;;;;17.47;41.54;99620.94;4918341;29;20036;-67
2024/03/03 06:06:29;;;;;;;6.70;3.70;;;;;;;17.42;42.72;99612.56;4918436;29;20501;-68
2024/03/03 06:08:54;;;;;;;10.95;4.68;;;;;;;17.41;41.78;99613.63;4919728;29;20055;-67
2024/03/03 06:11:20;;;;;;;6.35;3.75;;;;;;;17.37;42.32;99613.19;4918209;29;20036;-68
2024/03/03 06:13:45;;;;;;;8.15;3.90;;;;;;;17.41;42.58;99630.72;4919282;29;20119;-68
2024/03/03 06:16:11;;;;;;;6.97;3.63;;;;;;;17.41;41.55;99638.00;4936101;29;20044;-66
2024/03/03 06:18:36;;;;;;;6.78;3.72;;;;;;;17.36;42.17;99638.56;4938403;29;20035;-68
2024/03/03 06:21:02;;;;;;;8.73;4.15;;;;;;;17.34;42.84;99639.81;4938428;29;20080;-68
2024/03/03 06:23:27;;;;;;;5.97;4.00;;;;;;;17.33;42.00;99651.72;4937210;29;20095;-67
2024/03/03 06:25:53;;;;;;;8.73;4.40;;;;;;;17.29;42.61;99642.31;4937118;29;20043;-67
2024/03/03 06:28:18;;;;;;;8.52;4.13;;;;;;;17.28;43.50;99651.47;4938088;29;20134;-68
2024/03/03 06:30:44;;;;;;;7.88;4.25;;;;;;;17.28;41.78;99662.31;4920980;29;20115;-67
2024/03/03 06:33:13;;;;;;;7.10;4.18;;;;;;;17.25;42.84;99649.16;4936927;29;20039;-67
2024/03/03 06:35:38;;;;;;;8.98;4.13;;;;;;;17.24;42.93;99650.19;4936983;29;20131;-68
2024/03/03 06:38:03;;;;;;;9.57;4.20;;;;;;;17.23;42.95;99643.09;4936834;29;20119;-67
2024/03/03 06:40:29;;;;;;;9.23;4.60;;;;;;;17.21;43.70;99645.19;4921030;29;20063;-67
2024/03/03 06:42:54;;;;;;;9.88;3.60;;;;;;;17.23;43.09;99643.09;4936956;29;20063;-68
2024/03/03 06:45:19;;;;;;;5.65;4.03;;;;;;;17.24;42.77;99645.63;4937982;29;20035;-67
2024/03/03 06:47:45;;;;;;;8.30;4.45;;;;;;;17.24;42.80;99651.03;4938003;29;20083;-68
2024/03/03 06:50:11;;;;;;;7.30;4.30;;;;;;;17.24;42.87;99669.13;4936849;29;20039;-68
2024/03/03 06:52:36;;;;;;;11.93;4.65;;;;;;;17.20;42.72;99666.00;4920556;29;20038;-68
2024/03/03 06:55:02;;;;;;;10.02;5.03;;;;;;;17.18;43.28;99667.22;4936531;29;20407;-67
2024/03/03 06:57:28;;;;;;;8.05;3.90;;;;;;;17.16;43.12;99677.44;4920321;29;20039;-68
2024/03/03 06:59:53;;;;;;;7.40;4.45;;;;;;;17.16;43.36;99685.56;4920638;29;20032;-68
2024/03/03 07:02:19;;;;;;;10.52;5.07;;;;;;;17.17;43.40;99673.69;4937543;29;20432;-68
2024/03/03 07:04:45;;;;;;;8.82;4.65;;;;;;;17.20;43.57;99675.97;4937174;29;20403;-67
2024/03/03 07:07:10;;;;;;;7.07;3.80;;;;;;;17.22;44.08;99668.50;4936490;29;20035;-67
2024/03/03 07:09:39;;;;;;;10.00;4.55;;;;;;;17.23;43.59;99665.59;4936108;29;20031;-67
2024/03/03 07:12:05;;;;;;;9.40;4.43;;;;;;;17.26;43.41;99667.06;4936223;29;20518;-67
2024/03/03 07:14:31;;;;;;;7.63;4.00;;;;;;;17.32;43.55;99674.38;4936132;29;20040;-67
2024/03/03 07:16:56;;;;;;;16.90;4.85;;;;;;;17.34;42.76;99683.13;4935786;29;20083;-67
2024/03/03 07:19:22;;;;;;;10.00;4.75;;;;;;;17.37;43.83;99688.16;4920139;29;20039;-67
2024/03/03 07:21:47;;;;;;;12.68;5.43;;;;;;;17.37;43.37;99677.31;4936102;29;20060;-67
2024/03/03 07:24:12;;;;;;;8.98;4.32;;;;;;;17.41;43.21;99678.59;4935775;29;20050;-68
2024/03/03 07:26:38;;;;;;;9.35;4.28;;;;;;;17.42;42.69;99680.25;4936105;29;20040;-68
2024/03/03 07:29:03;;;;;;;8.30;4.70;;;;;;;17.44;43.31;99683.63;4935615;29;20523;-68
2024/03/03 07:31:29;;;;;;;9.10;4.45;;;;;;;17.49;43.17;99689.25;4935955;29;20039;-68
2024/03/03 07:33:56;;;;;;;13.35;5.57;;;;;;;17.51;43.25;99689.03;4935634;29;20085;-68
2024/03/03 07:36:21;;;;;;;7.68;3.83;;;;;;;17.49;43.36;99681.13;4935848;29;20555;-68
2024/03/03 07:38:47;;;;;;;9.93;4.93;;;;;;;17.49;42.62;99691.97;4935957;29;20040;-68
2024/03/03 07:41:12;;;;;;;10.85;5.47;;;;;;;17.49;42.88;99691.97;4935599;29;20115;-68
2024/03/03 07:43:37;;;;;;;7.63;5.03;;;;;;;17.47;43.62;99691.34;4935725;29;20087;-68
2024/03/03 07:46:03;;;;;;;9.45;5.25;;;;;;;17.44;43.24;99699.88;4935596;29;20067;-68
2024/03/03 07:48:29;;;;;;;8.05;4.88;;;;;;;17.43;43.12;99696.31;4935865;29;20094;-67
2024/03/03 07:50:54;;;;;;;13.80;5.03;;;;;;;17.43;43.19;99704.44;4919656;29;20043;-68
2024/03/03 07:53:20;;;;;;;12.73;5.13;;;;;;;17.40;43.48;99715.66;4919584;29;20031;-66
2024/03/03 07:55:46;;;;;;;8.93;5.07;;;;;;;17.42;43.42;99713.59;4935411;29;20036;-68
2024/03/03 07:58:12;;;;;;;11.90;5.10;;;;;;;17.43;43.72;99709.00;4935612;29;20476;-68
2024/03/03 08:00:37;;;;;;;7.97;4.50;;;;;;;17.46;43.73;99725.69;4919992;29;20028;-68
2024/03/03 08:03:04;;;;;;;13.63;5.05;;;;;;;17.47;44.18;99715.72;4935529;29;20027;-68
2024/03/03 08:05:32;;;;;;;9.32;4.85;;;;;;;17.54;43.09;99724.72;4919845;28;20027;-68
2024/03/03 08:07:58;;;;;;;9.50;5.15;;;;;;;17.50;43.66;99720.72;4935909;29;20023;-68
2024/03/03 08:10:23;;;;;;;10.13;4.97;;;;;;;17.53;44.37;99735.72;4920189;29;20082;-67
2024/03/03 08:12:48;;;;;;;10.35;4.97;;;;;;;17.55;43.74;99737.22;4919726;29;20028;-67
2024/03/03 08:15:14;;;;;;;11.00;6.03;;;;;;;17.59;44.03;99734.97;4935858;29;20035;-66
2024/03/03 08:17:39;;;;;;;12.35;5.88;;;;;;;17.62;43.95;99732.66;4919593;29;20038;-66
2024/03/03 08:20:05;;;;;;;11.00;4.82;;;;;;;17.65;43.97;99734.13;4919411;29;20158;-66
2024/03/03 08:22:30;;;;;;;10.50;5.10;;;;;;;17.74;42.87;99744.59;4935869;29;20027;-64
2024/03/03 08:24:56;;;;;;;11.52;5.25;;;;;;;17.82;43.74;99757.97;4935354;29;20539;-67
2024/03/03 08:27:21;;;;;;;9.43;4.75;;;;;;;17.89;43.61;99752.59;4936401;28;20024;-67
2024/03/03 08:29:47;;;;;;;13.05;6.07;;;;;;;17.98;43.57;99749.50;4935079;29;20390;-67
2024/03/03 08:32:12;;;;;;;9.15;5.15;;;;;;;18.06;43.47;99755.78;4935123;29;20024;-67
2024/03/03 08:34:37;;;;;;;11.98;5.07;;;;;;;18.17;43.71;99749.75;4935230;29;20044;-67
2024/03/03 08:37:03;;;;;;;13.85;5.35;;;;;;;18.29;43.32;99765.22;4919407;29;20480;-67
2024/03/03 08:39:28;;;;;;;9.00;5.30;;;;;;;18.38;43.02;99752.31;4935075;29;20494;-66
2024/03/03 08:41:53;;;;;;;10.07;5.10;;;;;;;18.49;43.14;99743.59;4919526;28;20034;-66
2024/03/03 08:44:19;;;;;;;10.07;5.45;;;;;;;18.59;43.14;99744.03;4919504;29;20024;-67
2024/03/03 08:46:45;;;;;;;10.77;5.35;;;;;;;18.80;42.61;99761.97;4919371;29;20019;-67
2024/03/03 08:49:10;;;;;;;10.30;5.55;;;;;;;18.94;42.99;99769.91;4935088;29;20026;-67
2024/03/03 08:51:38;;;;;;;8.35;5.55;;;;;;;19.09;42.53;99762.41;4934860;29;20110;-67
2024/03/03 08:54:04;;;;;;;14.55;5.90;;;;;;;19.27;42.27;99758.19;4935832;29;20044;-66
2024/03/03 08:56:30;;;;;;;11.73;5.70;;;;;;;19.50;42.57;99764.88;4919817;29;20019;-67
2024/03/03 08:58:55;;;;;;;11.35;6.13;;;;;;;19.77;42.43;99765.63;4919479;29;20464;-67
2024/03/03 09:01:20;;;;;;;13.27;6.47;;;;;;;20.10;41.93;99755.44;4935948;29;20055;-67
2024/03/03 09:03:46;;;;;;;9.73;5.40;;;;;;;20.54;41.81;99756.47;4935892;28;20043;-67
2024/03/03 09:06:11;;;;;;;9.05;5.30;;;;;;;20.95;41.39;99754.06;4939341;29;20036;-67
2024/03/03 09:08:37;;;;;;;12.02;5.80;;;;;;;21.30;40.53;99752.47;4922137;29;20115;-67
2024/03/03 09:11:06;;;;;;;11.18;5.80;;;;;;;21.22;41.35;99741.88;4939192;29;20038;-67
2024/03/03 09:13:34;;;;;;;11.13;5.70;;;;;;;21.50;41.17;99741.38;4938891;29;20044;-67
2024/03/03 09:15:59;;;;;;;10.90;6.30;;;;;;;21.90;40.55;99737.16;4938310;29;20035;-68
2024/03/03 09:18:25;;;;;;;9.80;5.68;;;;;;;22.35;40.53;99734.88;4939531;29;20035;-67
2024/03/03 09:20:50;;;;;;;17.08;6.93;;;;;;;22.59;40.38;99736.59;4922576;29;20039;-67
2024/03/03 09:23:16;;;;;;;11.25;5.97;;;;;;;22.48;40.52;99734.66;4938379;29;20042;-67
2024/03/03 09:25:41;;;;;;;9.57;5.53;;;;;;;22.44;40.75;99732.66;4938405;29;20592;-68
2024/03/03 09:28:07;;;;;;;11.88;5.72;;;;;;;22.38;39.94;99718.03;4922350;29;20036;-67
2024/03/03 09:30:32;;;;;;;15.85;5.68;;;;;;;22.32;40.37;99718.97;4939821;29;20064;-67
2024/03/03 09:32:57;;;;;;;11.00;5.15;;;;;;;22.20;40.54;99715.34;4938328;29;20064;-67
2024/03/03 09:35:23;;;;;;;13.63;5.95;;;;;;;22.10;39.85;99726.00;4937165;29;20131;-67
2024/03/03 09:37:52;;;;;;;10.77;5.68;;;;;;;21.95;40.20;99734.59;4939289;29;20511;-67
2024/03/03 09:40:18;;;;;;;9.13;5.20;;;;;;;21.87;39.70;99720.44;4938035;29;20035;-68
2024/03/03 09:42:49;;;;;;;7.88;4.70;;;;;;;21.86;39.88;99721.47;4937577;29;20420;-67
2024/03/03 09:45:19;;;;;;;14.55;7.18;;;;;;;22.10;39.92;99719.72;4937770;29;20056;-67
2024/03/03 09:47:46;;;;;;;12.32;6.03;;;;;;;23.02;37.98;99713.66;4921822;29;20030;-68
2024/03/03 09:50:14;;;;;;;10.50;5.55;;;;;;;22.73;38.58;99730.94;4937801;29;20031;-68
2024/03/03 09:52:41;;;;;;;9.85;5.90;;;;;;;22.88;38.92;99734.06;4921371;29;20055;-68
2024/03/03 09:55:08;;;;;;;12.00;5.78;;;;;;;22.86;39.64;99741.69;4937708;29;20032;-68
2024/03/03 09:57:35;;;;;;;12.43;6.07;;;;;;;23.82;37.09;99735.69;4937005;29;20500;-68
2024/03/03 10:00:01;;;;;;;14.00;6.38;;;;;;;24.74;36.94;99729.84;4920678;29;20035;-68
2024/03/03 10:02:27;;;;;;;11.57;6.05;;;;;;;25.36;36.02;99725.09;4937395;29;20087;-68
2024/03/03 10:04:54;;;;;;;12.18;5.90;;;;;;;25.88;36.02;99731.03;4937168;29;20093;-68
2024/03/03 10:07:23;;;;;;;12.55;6.00;;;;;;;26.40;35.01;99727.81;4921394;29;20034;-64
2024/03/03 10:10:02;;;;;;;11.73;6.38;;;;;;;26.95;34.84;99727.50;4937912;29;20558;-63
2024/03/03 10:12:30;;;;;;;9.77;5.75;;;;;;;27.45;33.80;99721.56;4936352;29;20180;-65
2024/03/03 10:14:56;;;;;;;12.02;5.93;;;;;;;26.82;35.58;99723.31;4919773;29;20036;-63
2024/03/03 10:17:21;;;;;;;9.63;5.32;;;;;;;27.11;34.46;99710.03;4936317;29;20040;-63
2024/03/03 10:19:46;;;;;;;8.07;5.28;;;;;;;26.89;34.61;99704.66;4936130;29;20046;-63
2024/03/03 10:22:18;;;;;;;10.43;5.43;;;;;;;26.93;35.11;99708.53;4936376;29;20027;-63
2024/03/03 10:24:43;;;;;;;9.82;5.78;;;;;;;26.62;34.81;99709.34;4920390;29;20032;-63
2024/03/03 10:27:18;;;;;;;11.27;5.82;;;;;;;26.36;35.39;99711.00;4936155;29;20381;-64
2024/03/03 10:29:44;;;;;;;9.55;5.38;;;;;;;27.19;33.97;99715.88;4920445;29;20035;-67
2024/03/03 10:32:10;;;;;;;12.70;6.53;;;;;;;27.74;33.30;99717.31;4936149;29;20062;-64
2024/03/03 10:34:39;;;;;;;9.15;5.30;;;;;;;28.09;32.67;99725.75;4936010;29;20087;-67
2024/03/03 10:37:05;;;;;;;8.80;5.15;;;;;;;28.31;32.49;99717.25;4936136;29;20063;-67
2024/03/03 10:39:35;;;;;;;7.07;4.53;;;;;;;28.59;32.49;99724.19;4936128;29;20027;-67
2024/03/03 10:42:05;;;;;;;11.55;5.85;;;;;;;28.39;32.55;99718.66;4937096;29;20504;-67
2024/03/03 10:44:30;;;;;;;12.50;6.28;;;;;;;28.88;32.57;99711.56;4936802;29;20074;-67
2024/03/03 10:46:57;;;;;;;11.35;5.82;;;;;;;29.32;32.28;99718.16;4935755;29;20055;-67
2024/03/03 10:49:25;;;;;;;7.68;5.10;;;;;;;29.66;31.52;99712.84;4937021;29;20040;-64
2024/03/03 10:51:50;;;;;;;10.75;4.68;;;;;;;29.95;31.47;99707.50;4920090;29;20024;-65
2024/03/03 10:54:18;;;;;;;10.80;5.07;;;;;;;30.20;31.14;99707.38;4935381;29;20032;-63
2024/03/03 10:56:44;;;;;;;7.80;4.70;;;;;;;30.36;30.82;99711.69;4936893;29;20132;-66
2024/03/03 10:59:10;;;;;;;6.82;4.25;;;;;;;30.61;30.72;99718.19;4935394;29;20044;-68
2024/03/03 11:01:36;;;;;;;8.73;4.00;;;;;;;30.80;30.20;99713.59;4935387;29;20456;-65
2024/03/03 11:04:05;;;;;;;5.88;3.83;;;;;;;31.04;29.83;99703.50;4919487;29;20036;-67
2024/03/03 11:06:31;;;;;;;5.20;3.92;;;;;;;31.33;29.90;99712.59;4936799;29;20032;-67
2024/03/03 11:08:58;;;;;;;5.70;3.70;;;;;;;31.65;29.20;99712.84;4935176;29;20032;-67
2024/03/03 11:11:24;;;;;;;3.97;3.03;;;;;;;31.79;29.87;99709.34;4919756;29;20083;-64
2024/03/03 11:13:58;;;;;;;6.50;2.28;;;;;;;31.85;29.07;99703.47;4935199;29;20036;-66
2024/03/03 11:16:28;;;;;;;4.88;2.00;;;;;;;32.01;28.74;99695.78;4934992;29;20040;-65
2024/03/03 11:18:58;;;;;;;5.38;1.38;;;;;;;32.14;28.53;99697.81;4935413;29;20022;-66
2024/03/03 11:21:28;;;;;;;2.65;1.40;;;;;;;32.14;27.84;99703.38;4935373;29;20024;-65
2024/03/03 11:23:59;;;;;;;2.42;1.30;;;;;;;31.31;28.82;99692.69;4936059;29;20151;-66
2024/03/03 11:26:31;;;;;;;1.48;1.10;;;;;;;30.79;28.95;99698.16;4936081;29;20047;-66